Time;durP1;ratioP1;P1;durP2;ratioP2;P2;SDS_P1;SDS_P2;PMS_P1;PMS_P2;Temp;Humidity;BMP_temperature;BMP_pressure;BME280_temperature;BME280_humidity;BME280_pressure;Samples;Min_cycle;Max_cycle;Signal;HPM_P1;HPM_P2
2021/08/23 00:02:22;;;;;;;8.40;4.30;;;16.70;99.90;;;;;;4973059;28;20392;-58
2021/08/23 00:04:48;;;;;;;7.07;4.00;;;16.70;99.90;;;;;;4973105;28;20403;-58
2021/08/23 00:07:14;;;;;;;7.68;4.28;;;16.70;99.90;;;;;;4971968;28;20399;-58
2021/08/23 00:09:39;;;;;;;9.90;4.70;;;16.60;99.90;;;;;;4973049;28;20924;-58
2021/08/23 00:12:05;;;;;;;8.97;4.20;;;16.50;99.90;;;;;;4972284;28;20376;-58
2021/08/23 00:14:31;;;;;;;8.25;4.50;;;16.40;99.90;;;;;;4972767;28;20429;-58
2021/08/23 00:16:57;;;;;;;7.90;4.30;;;16.40;99.90;;;;;;4972122;28;20432;-58
2021/08/23 00:19:22;;;;;;;10.70;4.78;;;16.30;99.90;;;;;;4972434;28;20403;-58
2021/08/23 00:22:00;;;;;;;7.97;4.00;;;16.40;99.90;;;;;;4972868;28;20733;-59
2021/08/23 00:24:26;;;;;;;8.75;4.80;;;16.40;99.90;;;;;;4972816;28;20852;-58
2021/08/23 00:26:53;;;;;;;10.18;4.40;;;16.40;99.90;;;;;;4972792;28;20403;-58
2021/08/23 00:29:19;;;;;;;8.70;4.32;;;16.50;99.90;;;;;;4971750;28;20551;-58
2021/08/23 00:31:46;;;;;;;9.45;4.63;;;16.60;99.90;;;;;;4972778;28;20396;-59
2021/08/23 00:34:12;;;;;;;8.48;4.40;;;16.50;99.90;;;;;;4971901;28;20397;-58
2021/08/23 00:36:38;;;;;;;10.32;4.55;;;16.70;99.90;;;;;;4972452;28;20468;-58
2021/08/23 00:39:06;;;;;;;7.70;4.60;;;16.80;99.90;;;;;;4971941;28;20542;-57
2021/08/23 00:41:32;;;;;;;8.73;4.50;;;16.90;99.90;;;;;;4972428;28;20397;-58
2021/08/23 00:43:59;;;;;;;8.00;4.20;;;16.90;99.90;;;;;;4971785;28;20486;-57
2021/08/23 00:46:25;;;;;;;7.97;4.25;;;16.80;99.90;;;;;;4972397;28;20384;-58
2021/08/23 00:48:51;;;;;;;8.10;4.50;;;16.80;99.90;;;;;;4972081;28;20431;-58
2021/08/23 00:51:17;;;;;;;9.48;4.50;;;16.80;99.90;;;;;;4971323;28;20411;-58
2021/08/23 00:53:43;;;;;;;11.38;4.57;;;16.90;99.90;;;;;;4972326;28;20449;-59
2021/08/23 00:56:11;;;;;;;7.78;4.00;;;16.90;99.90;;;;;;4971136;28;20876;-58
2021/08/23 00:58:36;;;;;;;8.93;4.57;;;16.80;99.90;;;;;;4972057;28;20418;-58
2021/08/23 01:01:27;;;;;;;9.90;4.70;;;16.80;99.90;;;;;;4971302;28;20856;-57
2021/08/23 01:04:02;;;;;;;8.23;4.25;;;16.90;99.90;;;;;;4971680;28;20761;-58
2021/08/23 01:06:30;;;;;;;8.15;4.22;;;16.90;99.90;;;;;;4971751;28;20455;-58
2021/08/23 01:09:01;;;;;;;7.55;4.35;;;16.90;99.90;;;;;;4938470;28;20423;-57
2021/08/23 01:11:28;;;;;;;8.20;4.30;;;16.90;99.90;;;;;;4954525;28;20388;-59
2021/08/23 01:13:54;;;;;;;10.45;4.55;;;16.80;99.90;;;;;;4972023;28;20895;-58
2021/08/23 01:16:20;;;;;;;7.45;4.20;;;16.80;99.90;;;;;;4970951;28;20388;-58
2021/08/23 01:18:45;;;;;;;9.70;4.23;;;16.80;99.90;;;;;;4971696;28;20407;-57
2021/08/23 01:21:25;;;;;;;8.00;4.30;;;16.70;99.90;;;;;;4970741;28;20396;-58
2021/08/23 01:23:53;;;;;;;7.40;3.80;;;16.80;99.90;;;;;;4971812;28;20400;-58
2021/08/23 01:26:25;;;;;;;7.57;4.00;;;16.70;99.90;;;;;;4977847;28;20488;-58
2021/08/23 01:28:58;;;;;;;7.80;3.65;;;16.70;99.90;;;;;;4989962;28;20849;-58
2021/08/23 01:31:40;;;;;;;8.07;4.20;;;16.80;99.90;;;;;;4990414;28;20394;-58
2021/08/23 01:34:07;;;;;;;9.35;4.18;;;16.70;99.90;;;;;;4989674;28;20374;-58
2021/08/23 01:36:33;;;;;;;10.27;4.80;;;16.70;99.90;;;;;;4990220;28;20405;-58
2021/08/23 01:38:59;;;;;;;8.60;4.20;;;16.70;99.90;;;;;;4972751;28;20390;-57
2021/08/23 01:41:25;;;;;;;8.60;4.20;;;16.70;99.90;;;;;;4991080;28;20391;-58
2021/08/23 01:43:51;;;;;;;10.27;3.75;;;16.70;99.90;;;;;;4990717;28;20407;-58
2021/08/23 01:46:17;;;;;;;9.23;4.40;;;16.60;99.90;;;;;;4989782;28;20425;-58
2021/08/23 01:48:43;;;;;;;8.90;4.22;;;16.60;99.90;;;;;;4990778;28;20454;-58
2021/08/23 01:51:08;;;;;;;9.47;4.30;;;16.60;99.90;;;;;;4989549;28;20924;-58
2021/08/23 01:53:34;;;;;;;9.30;3.80;;;16.60;99.90;;;;;;4990482;28;20390;-58
2021/08/23 01:56:01;;;;;;;10.13;4.40;;;16.60;99.90;;;;;;4971903;28;20780;-58
2021/08/23 01:58:27;;;;;;;8.10;3.60;;;16.50;99.90;;;;;;4973027;28;20420;-58
2021/08/23 02:00:53;;;;;;;7.63;4.30;;;16.50;99.90;;;;;;4990350;28;20929;-58
2021/08/23 02:03:18;;;;;;;6.40;3.60;;;16.60;99.90;;;;;;4989752;28;20431;-58
2021/08/23 02:05:44;;;;;;;7.83;3.83;;;16.60;99.90;;;;;;4989285;28;20383;-58
2021/08/23 02:08:10;;;;;;;9.80;4.00;;;16.70;99.90;;;;;;4989354;28;20520;-58
2021/08/23 02:10:36;;;;;;;8.20;4.22;;;16.60;99.90;;;;;;4990452;28;20382;-58
2021/08/23 02:13:02;;;;;;;7.60;4.03;;;16.60;99.90;;;;;;4989363;28;20378;-58
2021/08/23 02:15:28;;;;;;;7.00;3.60;;;16.60;99.90;;;;;;4989417;28;20429;-62
2021/08/23 02:17:53;;;;;;;7.18;4.05;;;16.60;99.90;;;;;;4990388;28;20402;-59
2021/08/23 02:20:19;;;;;;;8.00;4.10;;;16.70;99.90;;;;;;4988929;28;20474;-58
2021/08/23 02:22:45;;;;;;;6.87;3.80;;;16.60;99.90;;;;;;4989865;28;20402;-58
2021/08/23 02:25:11;;;;;;;9.30;3.75;;;16.60;99.90;;;;;;4989203;28;20620;-58
2021/08/23 02:27:37;;;;;;;16.27;4.80;;;16.60;99.90;;;;;;4990009;28;20920;-58
2021/08/23 02:30:04;;;;;;;6.72;4.10;;;16.50;99.90;;;;;;4989351;28;20478;-58
2021/08/23 02:32:30;;;;;;;8.90;4.10;;;16.50;99.90;;;;;;4989971;28;20413;-59
2021/08/23 02:34:57;;;;;;;7.70;3.90;;;16.60;99.90;;;;;;4989490;28;20390;-58
2021/08/23 02:37:24;;;;;;;7.30;4.20;;;16.50;99.90;;;;;;4989950;28;20387;-58
2021/08/23 02:39:50;;;;;;;9.50;4.10;;;16.60;99.90;;;;;;4990432;28;20389;-59
2021/08/23 02:42:15;;;;;;;7.07;3.80;;;16.60;99.90;;;;;;4989115;28;20398;-59
2021/08/23 02:44:41;;;;;;;7.60;4.00;;;16.70;99.90;;;;;;4989905;28;20413;-58
2021/08/23 02:47:07;;;;;;;8.07;3.95;;;16.70;99.90;;;;;;4989995;28;20404;-58
2021/08/23 02:49:32;;;;;;;7.20;3.72;;;16.80;99.90;;;;;;4990333;28;20780;-59
2021/08/23 02:51:58;;;;;;;10.10;4.07;;;16.90;99.90;;;;;;4989329;28;20473;-57
2021/08/23 02:54:25;;;;;;;7.60;4.10;;;16.90;99.90;;;;;;4989393;28;20413;-59
2021/08/23 02:56:50;;;;;;;7.55;3.50;;;16.90;99.90;;;;;;4989543;28;20421;-58
2021/08/23 02:59:16;;;;;;;9.57;3.70;;;17.00;99.90;;;;;;4988798;28;20794;-58
2021/08/23 03:01:41;;;;;;;6.50;3.70;;;16.90;99.90;;;;;;4989334;28;20395;-58
2021/08/23 03:04:07;;;;;;;11.00;4.43;;;16.90;99.90;;;;;;4988804;28;20433;-58
2021/08/23 03:06:33;;;;;;;8.53;3.47;;;17.00;99.90;;;;;;4989543;28;20466;-58
2021/08/23 03:08:58;;;;;;;8.03;3.63;;;17.00;99.90;;;;;;4989112;28;20461;-58
2021/08/23 03:11:26;;;;;;;8.57;3.25;;;17.10;99.90;;;;;;4971572;28;20430;-58
2021/08/23 03:13:52;;;;;;;9.45;3.85;;;17.10;99.90;;;;;;4989711;28;20429;-62
2021/08/23 03:16:18;;;;;;;10.03;4.00;;;17.00;99.90;;;;;;4988691;28;20440;-58
2021/08/23 03:18:44;;;;;;;11.32;4.15;;;16.90;99.90;;;;;;4989246;28;20410;-58
2021/08/23 03:21:10;;;;;;;9.80;3.83;;;16.90;99.90;;;;;;4988458;28;20394;-58
2021/08/23 03:23:36;;;;;;;7.80;3.40;;;16.80;99.90;;;;;;4989811;28;20870;-58
2021/08/23 03:26:06;;;;;;;8.10;3.53;;;16.80;99.90;;;;;;4971953;28;20460;-57
2021/08/23 03:28:32;;;;;;;7.15;3.80;;;16.80;99.90;;;;;;4975777;28;20894;-58
2021/08/23 03:30:58;;;;;;;7.35;4.18;;;16.80;99.90;;;;;;4993113;28;20386;-58
2021/08/23 03:33:23;;;;;;;8.57;4.50;;;16.90;99.90;;;;;;4992314;28;20810;-58
2021/08/23 03:35:49;;;;;;;8.48;4.70;;;16.90;99.90;;;;;;4993006;28;20750;-58
2021/08/23 03:38:15;;;;;;;7.63;4.10;;;16.90;99.90;;;;;;4992258;28;20392;-58
2021/08/23 03:40:40;;;;;;;7.80;4.38;;;16.80;99.90;;;;;;4992823;28;20485;-58
2021/08/23 03:43:06;;;;;;;9.90;3.80;;;16.90;99.90;;;;;;4992035;28;20855;-58
2021/08/23 03:45:32;;;;;;;7.03;3.60;;;16.70;99.90;;;;;;4992705;28;20397;-58
2021/08/23 03:47:57;;;;;;;9.20;4.10;;;16.80;99.90;;;;;;4992928;28;20913;-58
2021/08/23 03:50:23;;;;;;;8.03;3.57;;;16.80;99.90;;;;;;4974803;28;20815;-58
2021/08/23 03:52:49;;;;;;;6.60;3.50;;;16.80;99.90;;;;;;4992822;28;20491;-58
2021/08/23 03:55:15;;;;;;;8.63;4.10;;;16.80;99.90;;;;;;4992110;28;20485;-58
2021/08/23 03:57:40;;;;;;;10.40;4.00;;;16.80;99.90;;;;;;4978541;28;20395;-58
2021/08/23 04:00:08;;;;;;;9.10;3.58;;;16.80;99.90;;;;;;4972300;28;20388;-58
2021/08/23 04:02:34;;;;;;;9.68;4.72;;;16.70;99.90;;;;;;4982715;28;20482;-59
2021/08/23 04:05:00;;;;;;;7.53;4.10;;;16.70;99.90;;;;;;4972769;28;20875;-57
2021/08/23 04:07:26;;;;;;;9.00;3.93;;;16.80;99.90;;;;;;4972269;28;20388;-58
2021/08/23 04:09:52;;;;;;;10.25;4.65;;;16.90;99.90;;;;;;4973144;28;20817;-58
2021/08/23 04:12:17;;;;;;;7.27;3.53;;;16.90;99.90;;;;;;4974973;28;20392;-58
2021/08/23 04:14:43;;;;;;;8.00;4.30;;;16.90;99.90;;;;;;4972946;28;20432;-58
2021/08/23 04:17:09;;;;;;;8.80;3.90;;;16.90;99.90;;;;;;4972174;28;20406;-58
2021/08/23 04:19:35;;;;;;;8.43;3.80;;;16.80;99.90;;;;;;4973261;28;20442;-58
2021/08/23 04:22:00;;;;;;;7.90;4.05;;;16.90;99.90;;;;;;4972310;28;20399;-58
2021/08/23 04:24:26;;;;;;;8.52;3.83;;;17.00;99.90;;;;;;4972426;28;20524;-58
2021/08/23 04:26:52;;;;;;;9.00;4.60;;;17.00;99.90;;;;;;4967192;28;20390;-58
2021/08/23 04:29:18;;;;;;;8.47;4.07;;;16.90;99.90;;;;;;4977360;28;20510;-58
2021/08/23 04:31:44;;;;;;;8.97;3.83;;;16.80;99.90;;;;;;4987251;28;20857;-58
2021/08/23 04:34:10;;;;;;;11.30;4.30;;;16.80;99.90;;;;;;4980881;28;20399;-58
2021/08/23 04:36:36;;;;;;;8.30;3.72;;;16.80;99.90;;;;;;4975774;28;20398;-58
2021/08/23 04:39:03;;;;;;;9.13;4.40;;;16.80;99.90;;;;;;4990142;28;20406;-57
2021/08/23 04:41:34;;;;;;;9.90;4.00;;;15.30;99.90;;;;;;4991720;28;20383;-58
2021/08/23 04:43:59;;;;;;;8.40;3.90;;;16.70;99.90;;;;;;4980880;28;20512;-58
2021/08/23 04:46:25;;;;;;;9.13;4.40;;;16.70;99.90;;;;;;4985399;28;20465;-58
2021/08/23 04:48:52;;;;;;;8.70;4.15;;;16.70;99.90;;;;;;4979576;28;20432;-60
2021/08/23 04:51:18;;;;;;;8.93;3.93;;;16.70;99.90;;;;;;4971137;28;20409;-60
2021/08/23 04:53:43;;;;;;;7.20;4.00;;;16.70;99.90;;;;;;4972354;28;20399;-60
2021/08/23 04:56:10;;;;;;;8.47;3.50;;;16.70;99.90;;;;;;4971589;28;20384;-63
2021/08/23 04:58:36;;;;;;;8.00;3.90;;;16.70;99.90;;;;;;4971950;28;20403;-63
2021/08/23 05:01:02;;;;;;;11.67;4.30;;;16.60;99.90;;;;;;4971617;28;20385;-60
2021/08/23 05:03:27;;;;;;;11.35;4.20;;;16.70;99.90;;;;;;4972153;28;20472;-63
2021/08/23 05:05:53;;;;;;;7.15;3.60;;;16.70;99.90;;;;;;4972188;28;20396;-63
2021/08/23 05:08:19;;;;;;;10.63;3.97;;;16.70;99.90;;;;;;4971081;28;20930;-63
2021/08/23 05:10:46;;;;;;;9.68;4.20;;;16.80;99.90;;;;;;4976443;28;20403;-63
2021/08/23 05:13:11;;;;;;;8.45;3.60;;;16.70;99.90;;;;;;4982216;28;20411;-63
2021/08/23 05:15:37;;;;;;;8.20;3.80;;;16.70;99.90;;;;;;4982850;28;20392;-63
2021/08/23 05:18:03;;;;;;;8.27;3.80;;;16.70;99.90;;;;;;4984935;28;20438;-60
2021/08/23 05:20:28;;;;;;;10.23;4.07;;;16.80;99.90;;;;;;4978530;28;20453;-66
2021/08/23 05:22:54;;;;;;;10.83;4.50;;;16.80;99.90;;;;;;4981782;28;20397;-66
2021/08/23 05:25:20;;;;;;;9.38;4.00;;;16.80;99.90;;;;;;4984623;28;20394;-65
2021/08/23 05:27:46;;;;;;;9.67;4.00;;;16.80;99.90;;;;;;4975573;28;20432;-64
2021/08/23 05:30:12;;;;;;;8.27;4.00;;;16.90;99.90;;;;;;4974556;28;20392;-65
2021/08/23 05:32:38;;;;;;;8.10;3.90;;;16.90;99.90;;;;;;4973966;28;20500;-64
2021/08/23 05:35:04;;;;;;;7.40;4.18;;;16.80;99.90;;;;;;4986888;28;20439;-60
2021/08/23 05:37:30;;;;;;;9.38;4.10;;;16.80;99.90;;;;;;4980206;28;20924;-65
2021/08/23 05:39:55;;;;;;;10.00;4.03;;;16.90;99.90;;;;;;4979368;28;20384;-65
2021/08/23 05:42:21;;;;;;;7.22;3.85;;;16.90;99.90;;;;;;4972473;28;20852;-64
2021/08/23 05:44:47;;;;;;;9.15;3.92;;;16.90;99.90;;;;;;4969743;28;20458;-64
2021/08/23 05:47:13;;;;;;;9.50;4.03;;;17.00;99.90;;;;;;4970166;28;20400;-64
2021/08/23 05:49:38;;;;;;;8.63;4.10;;;17.10;99.90;;;;;;4955431;28;20414;-64
2021/08/23 05:52:04;;;;;;;8.52;4.03;;;17.20;99.90;;;;;;4978417;28;20410;-62
2021/08/23 05:54:30;;;;;;;7.35;3.67;;;17.40;99.90;;;;;;4982487;28;20399;-65
2021/08/23 05:56:57;;;;;;;7.82;4.40;;;17.50;99.90;;;;;;4970400;28;20400;-65
2021/08/23 05:59:23;;;;;;;9.15;3.78;;;17.60;99.90;;;;;;4965100;28;20390;-64
2021/08/23 06:01:56;;;;;;;7.50;3.90;;;17.60;99.90;;;;;;4972318;28;20482;-64
2021/08/23 06:04:22;;;;;;;8.15;3.83;;;17.60;99.90;;;;;;4989310;28;20409;-65
2021/08/23 06:06:48;;;;;;;9.32;4.32;;;17.60;99.90;;;;;;4988991;28;20386;-64
2021/08/23 06:09:18;;;;;;;9.37;4.20;;;17.70;99.90;;;;;;4983412;28;20417;-65
2021/08/23 06:11:45;;;;;;;8.13;3.95;;;17.70;99.90;;;;;;4989243;28;20394;-64
2021/08/23 06:14:11;;;;;;;9.40;4.53;;;17.60;99.90;;;;;;4989202;28;20893;-65
2021/08/23 06:16:37;;;;;;;11.32;4.70;;;17.50;99.90;;;;;;4987808;28;20854;-63
2021/08/23 06:19:03;;;;;;;8.50;4.10;;;17.50;99.90;;;;;;4987892;28;20486;-63
2021/08/23 06:21:29;;;;;;;8.70;4.10;;;17.70;99.90;;;;;;4989116;28;20474;-65
2021/08/23 06:23:54;;;;;;;8.17;4.33;;;17.80;99.90;;;;;;4989696;28;20770;-66
2021/08/23 06:26:20;;;;;;;8.40;4.10;;;17.70;99.90;;;;;;4988971;28;20383;-65
2021/08/23 06:28:45;;;;;;;9.18;4.35;;;17.60;99.90;;;;;;4989663;28;20418;-65
2021/08/23 06:31:11;;;;;;;7.20;4.50;;;17.60;99.90;;;;;;4988975;28;20387;-66
2021/08/23 06:33:37;;;;;;;8.53;4.27;;;17.60;99.90;;;;;;4989851;28;20838;-65
2021/08/23 06:36:02;;;;;;;9.67;4.17;;;17.60;99.90;;;;;;4989367;28;20661;-61
2021/08/23 06:38:28;;;;;;;7.50;4.40;;;17.60;99.90;;;;;;4989541;28;20541;-65
2021/08/23 06:40:54;;;;;;;10.17;4.20;;;17.60;99.90;;;;;;4989731;28;20397;-66
2021/08/23 06:43:19;;;;;;;7.15;4.30;;;17.80;99.90;;;;;;4988643;28;20803;-65
2021/08/23 06:45:45;;;;;;;9.82;4.50;;;17.90;99.90;;;;;;4989406;28;20474;-64
2021/08/23 06:48:11;;;;;;;8.40;4.30;;;18.00;99.90;;;;;;4989178;28;20460;-65
2021/08/23 06:50:37;;;;;;;7.35;4.05;;;18.50;99.90;;;;;;4989088;28;20394;-65
2021/08/23 06:53:03;;;;;;;10.00;4.35;;;18.30;99.90;;;;;;4989058;28;20402;-61
2021/08/23 06:55:30;;;;;;;8.07;4.30;;;18.60;99.90;;;;;;4989078;28;20382;-65
2021/08/23 06:57:56;;;;;;;8.73;4.18;;;18.70;99.90;;;;;;4986547;28;20426;-66
2021/08/23 07:00:22;;;;;;;7.80;3.92;;;18.80;99.90;;;;;;4969044;28;20415;-65
2021/08/23 07:02:48;;;;;;;7.27;3.97;;;18.90;99.90;;;;;;4974166;28;20856;-66
2021/08/23 07:05:14;;;;;;;7.70;4.00;;;18.90;99.90;;;;;;4973285;28;20396;-66
2021/08/23 07:07:40;;;;;;;7.53;4.10;;;18.60;99.90;;;;;;4973597;28;20420;-65
2021/08/23 07:10:08;;;;;;;8.18;4.32;;;18.70;99.90;;;;;;4973136;28;20389;-62
2021/08/23 07:12:34;;;;;;;8.85;4.40;;;18.70;99.90;;;;;;4973706;28;20882;-66
2021/08/23 07:15:00;;;;;;;9.43;4.40;;;18.70;99.90;;;;;;4973685;28;20384;-65
2021/08/23 07:17:26;;;;;;;8.30;4.30;;;18.60;99.90;;;;;;4972760;28;20432;-66
2021/08/23 07:19:51;;;;;;;8.40;4.50;;;18.70;99.90;;;;;;4973764;28;20759;-66
2021/08/23 07:22:19;;;;;;;7.10;3.90;;;18.60;99.90;;;;;;4972828;28;20796;-66
2021/08/23 07:24:46;;;;;;;10.30;4.80;;;18.50;99.90;;;;;;4973651;28;20404;-66
2021/08/23 07:27:12;;;;;;;8.60;4.43;;;18.30;99.90;;;;;;4955599;28;20398;-65
2021/08/23 07:29:38;;;;;;;8.30;4.88;;;18.40;99.90;;;;;;4973559;28;20526;-66
2021/08/23 07:32:03;;;;;;;8.80;4.50;;;18.40;99.90;;;;;;4973109;28;20388;-62
2021/08/23 07:34:29;;;;;;;9.70;4.10;;;18.40;99.90;;;;;;4972213;28;20779;-65
2021/08/23 07:36:55;;;;;;;11.70;4.53;;;18.40;99.90;;;;;;4972585;28;20820;-66
2021/08/23 07:39:20;;;;;;;7.47;4.45;;;18.50;99.90;;;;;;4972585;28;20910;-66
2021/08/23 07:41:46;;;;;;;11.20;5.00;;;18.60;99.90;;;;;;4973240;28;20853;-65
2021/08/23 07:44:12;;;;;;;9.50;4.40;;;18.70;99.90;;;;;;4972499;28;20805;-66
2021/08/23 07:46:37;;;;;;;9.45;4.50;;;18.80;99.90;;;;;;4972681;28;20459;-66
2021/08/23 07:49:04;;;;;;;9.18;4.20;;;18.80;99.90;;;;;;4972870;28;20431;-61
2021/08/23 07:51:30;;;;;;;8.23;4.32;;;19.00;99.90;;;;;;4977349;28;20409;-66
2021/08/23 07:53:55;;;;;;;7.90;4.03;;;19.30;99.90;;;;;;4991968;28;20741;-66
2021/08/23 07:56:21;;;;;;;8.13;4.37;;;19.30;99.90;;;;;;4991416;28;20482;-66
2021/08/23 07:58:46;;;;;;;8.65;4.20;;;19.40;99.90;;;;;;4982807;28;20410;-66
2021/08/23 08:01:12;;;;;;;10.55;4.90;;;19.50;99.90;;;;;;4954748;28;20435;-67
2021/08/23 08:03:38;;;;;;;9.37;4.53;;;19.50;99.90;;;;;;4972737;28;20396;-66
2021/08/23 08:06:04;;;;;;;9.55;4.40;;;19.50;99.90;;;;;;4972532;28;20447;-62
2021/08/23 08:08:30;;;;;;;8.20;4.40;;;19.50;99.90;;;;;;4971806;28;20423;-66
2021/08/23 08:10:56;;;;;;;9.98;4.80;;;19.50;99.90;;;;;;4973017;28;20481;-66
2021/08/23 08:13:22;;;;;;;8.10;4.60;;;19.60;99.90;;;;;;4971062;28;20387;-66
2021/08/23 08:15:49;;;;;;;8.98;4.30;;;19.60;99.90;;;;;;4976191;28;20523;-66
2021/08/23 08:18:14;;;;;;;7.25;4.50;;;19.80;99.90;;;;;;4980765;28;20406;-66
2021/08/23 08:20:40;;;;;;;7.60;3.90;;;19.60;99.90;;;;;;4974170;28;20388;-65
2021/08/23 08:23:06;;;;;;;10.70;4.70;;;20.00;99.90;;;;;;4971365;28;20384;-62
2021/08/23 08:25:31;;;;;;;8.53;4.37;;;20.10;99.90;;;;;;4954670;28;20399;-66
2021/08/23 08:27:57;;;;;;;7.40;4.30;;;20.30;99.90;;;;;;4971948;28;20438;-63
2021/08/23 08:30:23;;;;;;;9.02;5.00;;;20.80;99.90;;;;;;4976508;28;20440;-66
2021/08/23 08:32:49;;;;;;;9.18;4.20;;;20.60;99.90;;;;;;4986159;28;20909;-65
2021/08/23 08:35:14;;;;;;;8.13;4.03;;;20.80;99.90;;;;;;4987769;28;20844;-66
2021/08/23 08:37:41;;;;;;;8.10;4.40;;;20.60;99.90;;;;;;4989337;28;20751;-66
2021/08/23 08:40:08;;;;;;;9.40;4.28;;;22.10;99.90;;;;;;4983260;28;20422;-61
2021/08/23 08:42:34;;;;;;;10.40;4.60;;;20.80;99.90;;;;;;4985046;28;21056;-66
2021/08/23 08:45:00;;;;;;;8.82;4.25;;;20.50;99.90;;;;;;4985564;28;20410;-66
2021/08/23 08:47:27;;;;;;;10.30;4.20;;;20.40;99.90;;;;;;4971478;28;20455;-66
2021/08/23 08:49:54;;;;;;;9.00;4.38;;;20.60;99.90;;;;;;4978426;28;20421;-67
2021/08/23 08:52:20;;;;;;;9.60;4.45;;;21.10;99.90;;;;;;4981781;28;20520;-66
2021/08/23 08:54:46;;;;;;;9.55;4.20;;;21.00;99.90;;;;;;4979904;28;20517;-66
2021/08/23 08:57:12;;;;;;;8.27;4.43;;;21.00;99.90;;;;;;4986700;28;20485;-64
2021/08/23 08:59:38;;;;;;;9.23;4.20;;;21.30;99.90;;;;;;4984628;28;20410;-64
2021/08/23 09:02:05;;;;;;;8.77;4.40;;;21.50;99.90;;;;;;4985338;28;20406;-59
2021/08/23 09:04:35;;;;;;;8.43;4.07;;;21.30;99.90;;;;;;4986780;28;20421;-65
2021/08/23 09:07:02;;;;;;;8.55;3.50;;;21.00;99.90;;;;;;4981480;28;20417;-64
2021/08/23 09:09:29;;;;;;;7.63;3.70;;;21.30;99.90;;;;;;4980701;28;20429;-63
2021/08/23 09:12:07;;;;;;;8.35;3.78;;;21.50;99.90;;;;;;4987933;28;20485;-63
2021/08/23 09:14:36;;;;;;;7.05;3.70;;;21.60;99.90;;;;;;4985302;28;20402;-65
2021/08/23 09:17:09;;;;;;;7.72;3.70;;;21.40;99.90;;;;;;4982884;28;20424;-62
2021/08/23 09:19:36;;;;;;;8.75;3.58;;;21.30;99.90;;;;;;4981435;28;20414;-62
2021/08/23 09:22:06;;;;;;;10.27;3.88;;;21.60;99.90;;;;;;4986330;28;20494;-66
2021/08/23 09:24:37;;;;;;;9.73;4.28;;;21.90;99.90;;;;;;4974070;28;20414;-65
2021/08/23 09:27:08;;;;;;;8.45;3.83;;;22.10;99.90;;;;;;4982773;28;20403;-63
2021/08/23 09:29:54;;;;;;;9.13;3.60;;;22.90;99.90;;;;;;4986706;28;20418;-63
2021/08/23 09:32:25;;;;;;;7.75;3.30;;;23.60;99.90;;;;;;4985672;28;20497;-64
2021/08/23 09:34:51;;;;;;;10.32;3.70;;;23.90;99.90;;;;;;4982955;28;20417;-66
2021/08/23 09:37:25;;;;;;;7.38;3.67;;;23.60;99.90;;;;;;4984087;28;21651;-64
2021/08/23 09:39:53;;;;;;;10.10;3.20;;;23.10;99.90;;;;;;4969656;28;20826;-66
2021/08/23 09:42:21;;;;;;;8.57;5.53;;;23.40;99.90;;;;;;4980703;28;20420;-65
2021/08/23 09:44:48;;;;;;;6.80;3.00;;;23.80;99.90;;;;;;4968087;28;20402;-68
2021/08/23 09:47:13;;;;;;;8.15;3.50;;;23.30;99.90;;;;;;4979398;28;20406;-67
2021/08/23 09:49:46;;;;;;;7.30;3.27;;;23.20;99.90;;;;;;4984023;28;20426;-65
2021/08/23 09:52:21;;;;;;;7.18;2.90;;;23.30;99.90;;;;;;4980304;28;20414;-67
2021/08/23 09:55:05;;;;;;;8.40;3.00;;;24.00;99.90;;;;;;4982135;28;20465;-66
2021/08/23 09:57:38;;;;;;;9.40;3.33;;;24.00;99.90;;;;;;4986398;28;20541;-66
2021/08/23 10:00:07;;;;;;;7.38;3.45;;;23.80;99.90;;;;;;4985439;28;20447;-67
2021/08/23 10:02:34;;;;;;;7.05;3.30;;;24.30;99.90;;;;;;4982583;28;20418;-64
2021/08/23 10:05:01;;;;;;;5.50;2.75;;;24.60;99.90;;;;;;4985348;28;20382;-66
2021/08/23 10:07:29;;;;;;;7.90;2.70;;;24.80;99.90;;;;;;4984391;28;20552;-65
2021/08/23 10:10:01;;;;;;;6.90;3.20;;;24.80;99.90;;;;;;4979734;28;20404;-68
2021/08/23 10:12:28;;;;;;;8.40;3.00;;;24.60;99.90;;;;;;4979176;28;20414;-67
2021/08/23 10:14:54;;;;;;;9.63;3.00;;;24.40;99.90;;;;;;4988654;28;20390;-66
2021/08/23 10:17:21;;;;;;;9.03;2.80;;;24.20;99.90;;;;;;4983157;28;20998;-66
2021/08/23 10:19:49;;;;;;;6.40;3.10;;;23.40;99.90;;;;;;4982702;28;20415;-65
2021/08/23 10:22:14;;;;;;;6.07;2.80;;;23.00;99.90;;;;;;4974812;28;20505;-64
2021/08/23 10:24:41;;;;;;;7.47;2.90;;;22.70;99.90;;;;;;4979505;28;20552;-65
2021/08/23 10:27:06;;;;;;;8.40;2.95;;;22.80;99.90;;;;;;4983315;28;20412;-61
2021/08/23 10:29:40;;;;;;;7.10;3.40;;;21.80;99.90;;;;;;4983704;28;20785;-66
2021/08/23 10:32:10;;;;;;;6.22;2.90;;;21.70;99.90;;;;;;4982179;28;20540;-62
2021/08/23 10:34:38;;;;;;;6.75;3.38;;;22.30;99.90;;;;;;4986220;28;20414;-66
2021/08/23 10:37:21;;;;;;;6.25;3.20;;;22.40;99.90;;;;;;4983344;28;20412;-67
2021/08/23 10:40:02;;;;;;;6.78;3.22;;;22.70;99.90;;;;;;4982961;28;20531;-62
2021/08/23 10:42:39;;;;;;;7.27;3.27;;;22.20;99.90;;;;;;4987303;28;20425;-64
2021/08/23 10:45:16;;;;;;;6.60;3.00;;;22.10;99.90;;;;;;4982768;28;20417;-65
2021/08/23 10:47:43;;;;;;;6.40;2.80;;;22.00;99.90;;;;;;4989327;28;20414;-65
2021/08/23 10:50:20;;;;;;;6.53;2.83;;;22.40;99.90;;;;;;4990470;28;20418;-61
2021/08/23 10:52:45;;;;;;;6.13;2.42;;;22.10;99.90;;;;;;4990012;28;20980;-66
2021/08/23 10:55:20;;;;;;;7.67;2.90;;;22.10;99.90;;;;;;4990400;28;20409;-61
2021/08/23 10:57:46;;;;;;;5.90;2.20;;;22.10;99.90;;;;;;4989778;28;20450;-64
2021/08/23 11:00:17;;;;;;;6.23;2.40;;;22.40;99.90;;;;;;4988783;28;20552;-61
2021/08/23 11:02:43;;;;;;;6.10;2.47;;;22.60;99.90;;;;;;4991219;28;20769;-66
2021/08/23 11:05:21;;;;;;;5.80;2.50;;;22.50;99.90;;;;;;4991815;28;20405;-60
2021/08/23 11:07:48;;;;;;;6.07;2.40;;;22.80;99.90;;;;;;4986626;28;20433;-65
2021/08/23 11:10:22;;;;;;;5.60;2.13;;;22.90;99.90;;;;;;4988381;28;20904;-64
2021/08/23 11:12:50;;;;;;;7.15;2.55;;;23.10;99.90;;;;;;4992259;28;20509;-65
2021/08/23 11:15:17;;;;;;;5.80;2.30;;;23.30;99.90;;;;;;4990325;28;20434;-66
2021/08/23 11:17:46;;;;;;;5.43;2.10;;;23.40;99.90;;;;;;4984736;28;20766;-64
2021/08/23 11:20:11;;;;;;;5.30;2.30;;;23.40;99.90;;;;;;4990238;28;20424;-60
2021/08/23 11:22:37;;;;;;;5.70;2.50;;;23.20;99.90;;;;;;4979486;28;20477;-65
2021/08/23 11:25:04;;;;;;;5.50;2.10;;;23.50;99.90;;;;;;4987452;28;20406;-66
2021/08/23 11:27:30;;;;;;;6.70;3.17;;;23.60;99.90;;;;;;4976195;28;20886;-66
2021/08/23 11:29:56;;;;;;;5.20;2.10;;;23.80;99.90;;;;;;4984558;28;20406;-66
2021/08/23 11:32:30;;;;;;;6.80;2.40;;;24.00;99.90;;;;;;4992135;28;20398;-66
2021/08/23 11:34:58;;;;;;;5.47;2.20;;;24.10;99.90;;;;;;4985816;28;20394;-63
2021/08/23 11:37:26;;;;;;;6.00;2.10;;;24.20;99.90;;;;;;4994985;28;20452;-65
2021/08/23 11:40:07;;;;;;;6.47;2.60;;;24.10;99.90;;;;;;4995450;28;20870;-66
2021/08/23 11:42:33;;;;;;;5.65;2.40;;;23.80;99.90;;;;;;4989733;28;20438;-65
2021/08/23 11:44:59;;;;;;;6.15;2.25;;;24.20;99.90;;;;;;4976275;28;20384;-63
2021/08/23 11:47:31;;;;;;;5.30;2.30;;;24.20;99.90;;;;;;4974497;28;20403;-66
2021/08/23 11:49:57;;;;;;;6.15;2.50;;;24.30;99.90;;;;;;4979513;28;20414;-67
2021/08/23 11:52:23;;;;;;;5.80;2.70;;;23.90;99.90;;;;;;4965184;28;20417;-66
2021/08/23 11:54:51;;;;;;;6.78;2.65;;;23.70;99.90;;;;;;4955147;28;20386;-65
2021/08/23 11:57:18;;;;;;;5.83;2.10;;;24.00;99.90;;;;;;4961396;28;20388;-66
2021/08/23 11:59:54;;;;;;;5.90;2.60;;;24.10;99.90;;;;;;4960657;28;20412;-65
2021/08/23 12:02:27;;;;;;;6.90;2.70;;;24.10;99.90;;;;;;4960025;28;20423;-66
2021/08/23 12:04:53;;;;;;;5.90;2.70;;;24.10;99.90;;;;;;4962579;28;20408;-66
2021/08/23 12:07:19;;;;;;;6.70;2.30;;;24.20;99.90;;;;;;4964667;28;20416;-66
2021/08/23 12:09:44;;;;;;;6.20;2.40;;;23.90;99.90;;;;;;4964377;28;20515;-63
2021/08/23 12:12:20;;;;;;;5.70;2.40;;;23.60;99.90;;;;;;4961971;28;20914;-64
2021/08/23 12:14:57;;;;;;;5.85;2.20;;;23.60;99.90;;;;;;4966223;28;20418;-66
2021/08/23 12:17:30;;;;;;;5.93;2.10;;;23.70;99.90;;;;;;4963005;28;20431;-66
2021/08/23 12:20:06;;;;;;;5.60;2.40;;;23.90;99.90;;;;;;4966737;28;20393;-66
2021/08/23 12:22:32;;;;;;;5.80;2.37;;;24.40;99.90;;;;;;4959028;28;20477;-67
2021/08/23 12:25:00;;;;;;;6.28;2.40;;;24.50;99.90;;;;;;4955180;28;20510;-66
2021/08/23 12:27:25;;;;;;;5.63;2.20;;;24.40;99.90;;;;;;4954363;28;20474;-66
2021/08/23 12:29:51;;;;;;;5.97;2.30;;;23.80;99.90;;;;;;4954961;28;20460;-67
2021/08/23 12:32:17;;;;;;;7.40;2.70;;;23.90;99.90;;;;;;4955042;28;20412;-65
2021/08/23 12:34:51;;;;;;;7.33;2.63;;;23.70;99.90;;;;;;4960212;28;20825;-65
2021/08/23 12:37:19;;;;;;;5.85;2.00;;;23.80;99.90;;;;;;4957200;28;20414;-65
2021/08/23 12:39:50;;;;;;;5.78;2.40;;;24.10;99.90;;;;;;4959694;28;20399;-66
2021/08/23 12:42:20;;;;;;;5.88;2.30;;;24.50;99.90;;;;;;4958863;28;20420;-62
2021/08/23 12:44:46;;;;;;;5.80;2.10;;;25.10;99.90;;;;;;4962247;28;20408;-66
2021/08/23 12:47:11;;;;;;;5.65;2.40;;;24.80;99.90;;;;;;4962556;28;20490;-65